Highest pressure

Not for real navigation. The accuracy of this data is not assured See disclaimer for more information



ICAO NAME COUNTRY WIND Kt GUST Kt VIS m TEMP/DEW C BARO METAR
KMYP Salida Mountain, Monarch Pass CO United States 8 0 9999 9/4 30.76 KMYP 281205Z AUTO 21008KT CAVOK 09/04 A3076 RMK AO2 PWINO
SLPO Potosi Bolivia 0 0 9999 1/-8 30.74 SLPO 281200Z 00000KT 9999 NSC 01/M08 Q1041
K0CO 12 0 9999 6/1 30.70 K0CO 281219Z AUTO 29012KT 10SM CAVOK 06/01 A3070 RMK AO2 LTG NOOP SW AND W
KCPW Pagosa Springs, Wolf Creek Pas CO United States 0 0 16000 8/7 30.69 KCPW 281214Z AUTO 00000KT 10SM SCT100 08/07 A3069 RMK AO2 LTG NOOP SW AND W
SLLP La Paz / Alto Bolivia 5 0 9999 3/-13 30.68 SLLP 281200Z 01005KT 9999 NSC 03/M13 Q1039

Show more